sensor_id;sensor_type;location;lat;lon;timestamp;pressure;altitude;pressure_sealevel;temperature
67966;BMP280;54749;47.850;9.002;2023-02-28T00:00:50;96316.34;;;-1.36
67966;BMP280;54749;47.850;9.002;2023-02-28T00:03:18;96322.94;;;-1.35
67966;BMP280;54749;47.850;9.002;2023-02-28T00:05:45;96324.53;;;-1.34
67966;BMP280;54749;47.850;9.002;2023-02-28T00:08:12;96304.72;;;-1.34
67966;BMP280;54749;47.850;9.002;2023-02-28T00:10:40;96323.72;;;-1.34
67966;BMP280;54749;47.850;9.002;2023-02-28T00:13:07;96315.44;;;-1.33
67966;BMP280;54749;47.850;9.002;2023-02-28T00:15:34;96315.44;;;-1.33
67966;BMP280;54749;47.850;9.002;2023-02-28T00:18:02;96318.78;;;-1.34
67966;BMP280;54749;47.850;9.002;2023-02-28T00:20:30;96316.34;;;-1.36
67966;BMP280;54749;47.850;9.002;2023-02-28T00:22:57;96314.59;;;-1.32
67966;BMP280;54749;47.850;9.002;2023-02-28T00:25:25;96310.44;;;-1.30
67966;BMP280;54749;47.850;9.002;2023-02-28T00:27:52;96303.06;;;-1.33
67966;BMP280;54749;47.850;9.002;2023-02-28T00:30:21;96310.50;;;-1.33
67966;BMP280;54749;47.850;9.002;2023-02-28T00:32:50;96319.56;;;-1.32
67966;BMP280;54749;47.850;9.002;2023-02-28T00:35:17;96314.59;;;-1.32
67966;BMP280;54749;47.850;9.002;2023-02-28T00:37:44;96312.16;;;-1.34
67966;BMP280;54749;47.850;9.002;2023-02-28T00:40:11;96304.72;;;-1.34
67966;BMP280;54749;47.850;9.002;2023-02-28T00:42:39;96303.97;;;-1.36
67966;BMP280;54749;47.850;9.002;2023-02-28T00:45:07;96310.50;;;-1.33
67966;BMP280;54749;47.850;9.002;2023-02-28T00:47:37;96306.34;;;-1.33
67966;BMP280;54749;47.850;9.002;2023-02-28T00:50:05;96302.22;;;-1.32
67966;BMP280;54749;47.850;9.002;2023-02-28T00:52:32;96296.53;;;-1.36
67966;BMP280;54749;47.850;9.002;2023-02-28T00:54:59;96299.84;;;-1.37
67966;BMP280;54749;47.850;9.002;2023-02-28T00:57:26;96299.84;;;-1.37
67966;BMP280;54749;47.850;9.002;2023-02-28T00:59:53;96307.19;;;-1.34
67966;BMP280;54749;47.850;9.002;2023-02-28T01:02:23;96299.75;;;-1.32
67966;BMP280;54749;47.850;9.002;2023-02-28T01:04:52;96302.25;;;-1.34
67966;BMP280;54749;47.850;9.002;2023-02-28T01:07:19;96294.88;;;-1.35
67966;BMP280;54749;47.850;9.002;2023-02-28T01:09:46;96299.88;;;-1.38
67966;BMP280;54749;47.850;9.002;2023-02-28T01:12:13;96290.03;;;-1.40
67966;BMP280;54749;47.850;9.002;2023-02-28T01:14:40;96297.41;;;-1.38
67966;BMP280;54749;47.850;9.002;2023-02-28T01:17:08;96291.66;;;-1.39
67966;BMP280;54749;47.850;9.002;2023-02-28T01:19:36;96290.91;;;-1.42
67966;BMP280;54749;47.850;9.002;2023-02-28T01:22:04;96285.13;;;-1.42
67966;BMP280;54749;47.850;9.002;2023-02-28T01:24:32;96287.56;;;-1.41
67966;BMP280;54749;47.850;9.002;2023-02-28T01:27:00;96279.38;;;-1.43
67966;BMP280;54749;47.850;9.002;2023-02-28T01:29:27;96295.22;;;-1.48
67966;BMP280;54749;47.850;9.002;2023-02-28T01:31:54;96291.91;;;-1.49
67966;BMP280;54749;47.850;9.002;2023-02-28T01:34:21;96291.06;;;-1.48
67966;BMP280;54749;47.850;9.002;2023-02-28T01:36:48;96295.13;;;-1.45
67966;BMP280;54749;47.850;9.002;2023-02-28T01:39:15;96302.59;;;-1.47
67966;BMP280;54749;47.850;9.002;2023-02-28T01:41:42;96280.41;;;-1.51
67966;BMP280;54749;47.850;9.002;2023-02-28T01:47:14;96297.72;;;-1.50
67966;BMP280;54749;47.850;9.002;2023-02-28T01:49:42;96301.03;;;-1.51
67966;BMP280;54749;47.850;9.002;2023-02-28T01:52:10;96296.06;;;-1.49
67966;BMP280;54749;47.850;9.002;2023-02-28T01:54:41;96293.53;;;-1.48
67966;BMP280;54749;47.850;9.002;2023-02-28T01:57:13;96291.94;;;-1.50
67966;BMP280;54749;47.850;9.002;2023-02-28T01:59:45;96303.50;;;-1.51
67966;BMP280;54749;47.850;9.002;2023-02-28T02:02:17;96294.38;;;-1.49
67966;BMP280;54749;47.850;9.002;2023-02-28T02:04:53;96298.53;;;-1.49
67966;BMP280;54749;47.850;9.002;2023-02-28T02:07:21;96290.28;;;-1.50
67966;BMP280;54749;47.850;9.002;2023-02-28T02:09:49;96285.34;;;-1.51
67966;BMP280;54749;47.850;9.002;2023-02-28T02:13:17;96284.59;;;-1.53
67966;BMP280;54749;47.850;9.002;2023-02-28T02:15:24;96293.66;;;-1.52
67966;BMP280;54749;47.850;9.002;2023-02-28T02:17:56;96292.03;;;-1.53
67966;BMP280;54749;47.850;9.002;2023-02-28T02:26:30;96281.31;;;-1.54
67966;BMP280;54749;47.850;9.002;2023-02-28T02:40:16;96270.56;;;-1.54
67966;BMP280;54749;47.850;9.002;2023-02-28T02:43:07;96281.31;;;-1.54
67966;BMP280;54749;47.850;9.002;2023-02-28T02:45:39;96282.13;;;-1.53
67966;BMP280;54749;47.850;9.002;2023-02-28T02:48:11;96286.22;;;-1.52
67966;BMP280;54749;47.850;9.002;2023-02-28T02:50:43;96278.03;;;-1.56
67966;BMP280;54749;47.850;9.002;2023-02-28T02:53:14;96274.81;;;-1.59
67966;BMP280;54749;47.850;9.002;2023-02-28T02:55:46;96276.38;;;-1.55
67966;BMP280;54749;47.850;9.002;2023-02-28T02:58:16;96278.03;;;-1.56
67966;BMP280;54749;47.850;9.002;2023-02-28T03:00:53;96269.84;;;-1.58
67966;BMP280;54749;47.850;9.002;2023-02-28T03:03:22;96270.66;;;-1.57
67966;BMP280;54749;47.850;9.002;2023-02-28T03:05:57;96277.25;;;-1.56
67966;BMP280;54749;47.850;9.002;2023-02-28T03:08:25;96276.38;;;-1.55
67966;BMP280;54749;47.850;9.002;2023-02-28T03:11:05;96278.91;;;-1.57
67966;BMP280;54749;47.850;9.002;2023-02-28T03:21:51;96265.72;;;-1.57
67966;BMP280;54749;47.850;9.002;2023-02-28T03:27:05;96278.13;;;-1.58
67966;BMP280;54749;47.850;9.002;2023-02-28T03:29:39;96270.66;;;-1.57
67966;BMP280;54749;47.850;9.002;2023-02-28T03:32:19;96267.34;;;-1.56
67966;BMP280;54749;47.850;9.002;2023-02-28T03:37:26;96247.53;;;-1.56
67966;BMP280;54749;47.850;9.002;2023-02-28T03:39:59;96262.38;;;-1.56
67966;BMP280;54749;47.850;9.002;2023-02-28T03:42:29;96244.25;;;-1.58
67966;BMP280;54749;47.850;9.002;2023-02-28T03:45:01;96264.16;;;-1.61
67966;BMP280;54749;47.850;9.002;2023-02-28T03:47:37;96258.38;;;-1.61
67966;BMP280;54749;47.850;9.002;2023-02-28T03:50:16;96265.00;;;-1.62
67966;BMP280;54749;47.850;9.002;2023-02-28T03:52:50;96274.06;;;-1.61
67966;BMP280;54749;47.850;9.002;2023-02-28T03:55:20;96267.38;;;-1.59
67966;BMP280;54749;47.850;9.002;2023-02-28T03:58:00;96269.06;;;-1.59
67966;BMP280;54749;47.850;9.002;2023-02-28T04:00:34;96266.66;;;-1.62
67966;BMP280;54749;47.850;9.002;2023-02-28T04:03:03;96262.53;;;-1.62
67966;BMP280;54749;47.850;9.002;2023-02-28T04:05:31;96271.63;;;-1.62
67966;BMP280;54749;47.850;9.002;2023-02-28T04:08:07;96273.31;;;-1.64
67966;BMP280;54749;47.850;9.002;2023-02-28T04:10:34;96278.31;;;-1.66
67966;BMP280;54749;47.850;9.002;2023-02-28T04:13:01;96288.97;;;-1.62
67966;BMP280;54749;47.850;9.002;2023-02-28T04:15:28;96280.78;;;-1.66
67966;BMP280;54749;47.850;9.002;2023-02-28T04:17:55;96286.50;;;-1.64
67966;BMP280;54749;47.850;9.002;2023-02-28T04:20:22;96280.72;;;-1.63
67966;BMP280;54749;47.850;9.002;2023-02-28T04:22:49;96278.97;;;-1.59
67966;BMP280;54749;47.850;9.002;2023-02-28T04:25:16;96278.94;;;-1.58
67966;BMP280;54749;47.850;9.002;2023-02-28T04:27:43;96291.31;;;-1.58
67966;BMP280;54749;47.850;9.002;2023-02-28T04:30:11;96275.75;;;-1.63
67966;BMP280;54749;47.850;9.002;2023-02-28T04:32:38;96284.78;;;-1.60
67966;BMP280;54749;47.850;9.002;2023-02-28T04:35:06;96281.44;;;-1.59
67966;BMP280;54749;47.850;9.002;2023-02-28T04:37:33;96279.03;;;-1.61
67966;BMP280;54749;47.850;9.002;2023-02-28T04:40:03;96284.03;;;-1.64
67966;BMP280;54749;47.850;9.002;2023-02-28T04:42:30;96275.75;;;-1.63
67966;BMP280;54749;47.850;9.002;2023-02-28T04:45:03;96281.53;;;-1.62
67966;BMP280;54749;47.850;9.002;2023-02-28T04:47:30;96269.94;;;-1.60
67966;BMP280;54749;47.850;9.002;2023-02-28T04:49:57;96274.06;;;-1.61
67966;BMP280;54749;47.850;9.002;2023-02-28T04:52:24;96280.59;;;-1.58
67966;BMP280;54749;47.850;9.002;2023-02-28T04:54:51;96272.41;;;-1.60
67966;BMP280;54749;47.850;9.002;2023-02-28T04:57:18;96283.16;;;-1.61
67966;BMP280;54749;47.850;9.002;2023-02-28T04:59:45;96279.03;;;-1.61
67966;BMP280;54749;47.850;9.002;2023-02-28T05:02:12;96285.63;;;-1.61
67966;BMP280;54749;47.850;9.002;2023-02-28T05:04:39;96293.09;;;-1.63
67966;BMP280;54749;47.850;9.002;2023-02-28T05:07:06;96284.50;;;-1.50
67966;BMP280;54749;47.850;9.002;2023-02-28T05:09:33;96286.75;;;-1.41
67966;BMP280;54749;47.850;9.002;2023-02-28T05:12:00;96291.88;;;-1.47
67966;BMP280;54749;47.850;9.002;2023-02-28T05:14:27;96301.00;;;-1.49
67966;BMP280;54749;47.850;9.002;2023-02-28T05:16:54;96297.06;;;-1.56
67966;BMP280;54749;47.850;9.002;2023-02-28T05:19:21;96308.63;;;-1.57
67966;BMP280;54749;47.850;9.002;2023-02-28T05:21:53;96305.34;;;-1.57
67966;BMP280;54749;47.850;9.002;2023-02-28T05:24:21;96304.50;;;-1.56
67966;BMP280;54749;47.850;9.002;2023-02-28T05:26:52;96305.25;;;-1.54
67966;BMP280;54749;47.850;9.002;2023-02-28T05:29:20;96311.13;;;-1.57
67966;BMP280;54749;47.850;9.002;2023-02-28T05:31:48;96306.97;;;-1.56
67966;BMP280;54749;47.850;9.002;2023-02-28T05:34:15;96314.41;;;-1.56
67966;BMP280;54749;47.850;9.002;2023-02-28T05:36:43;96299.59;;;-1.59
67966;BMP280;54749;47.850;9.002;2023-02-28T05:39:10;96309.56;;;-1.60
67966;BMP280;54749;47.850;9.002;2023-02-28T05:41:41;96308.75;;;-1.61
67966;BMP280;54749;47.850;9.002;2023-02-28T05:44:09;96312.78;;;-1.57
67966;BMP280;54749;47.850;9.002;2023-02-28T05:46:36;96316.06;;;-1.57
67966;BMP280;54749;47.850;9.002;2023-02-28T05:49:03;96313.63;;;-1.58
67966;BMP280;54749;47.850;9.002;2023-02-28T05:51:30;96316.94;;;-1.59
67966;BMP280;54749;47.850;9.002;2023-02-28T05:53:59;96307.84;;;-1.58
67966;BMP280;54749;47.850;9.002;2023-02-28T05:56:27;96313.63;;;-1.58
67966;BMP280;54749;47.850;9.002;2023-02-28T05:58:54;96325.09;;;-1.56
67966;BMP280;54749;47.850;9.002;2023-02-28T06:01:31;96322.75;;;-1.60
67966;BMP280;54749;47.850;9.002;2023-02-28T06:04:00;96326.00;;;-1.58
67966;BMP280;54749;47.850;9.002;2023-02-28T06:06:28;96339.19;;;-1.56
67966;BMP280;54749;47.850;9.002;2023-02-28T06:08:56;96335.00;;;-1.54
67966;BMP280;54749;47.850;9.002;2023-02-28T06:11:23;96341.66;;;-1.56
67966;BMP280;54749;47.850;9.002;2023-02-28T06:13:56;96337.44;;;-1.53
67966;BMP280;54749;47.850;9.002;2023-02-28T06:16:24;96332.44;;;-1.51
67966;BMP280;54749;47.850;9.002;2023-02-28T06:18:51;96331.59;;;-1.50
67966;BMP280;54749;47.850;9.002;2023-02-28T06:21:19;96348.94;;;-1.50
67966;BMP280;54749;47.850;9.002;2023-02-28T06:23:46;96354.69;;;-1.48
67966;BMP280;54749;47.850;9.002;2023-02-28T06:26:13;96340.53;;;-1.45
67966;BMP280;54749;47.850;9.002;2023-02-28T06:28:40;96349.53;;;-1.41
67966;BMP280;54749;47.850;9.002;2023-02-28T06:31:09;96359.47;;;-1.42
67966;BMP280;54749;47.850;9.002;2023-02-28T06:33:37;96355.31;;;-1.40
67966;BMP280;54749;47.850;9.002;2023-02-28T06:36:05;96357.78;;;-1.40
67966;BMP280;54749;47.850;9.002;2023-02-28T06:38:34;96365.19;;;-1.39
67966;BMP280;54749;47.850;9.002;2023-02-28T06:41:01;96370.16;;;-1.39
67966;BMP280;54749;47.850;9.002;2023-02-28T06:43:32;96370.97;;;-1.39
67966;BMP280;54749;47.850;9.002;2023-02-28T06:46:01;96363.44;;;-1.36
67966;BMP280;54749;47.850;9.002;2023-02-28T06:48:28;96381.50;;;-1.31
67966;BMP280;54749;47.850;9.002;2023-02-28T06:53:33;96392.38;;;-1.38
67966;BMP280;54749;47.850;9.002;2023-02-28T06:56:04;96385.88;;;-1.41
67966;BMP280;54749;47.850;9.002;2023-02-28T06:58:33;96392.56;;;-1.43
67966;BMP280;54749;47.850;9.002;2023-02-28T07:01:00;96383.41;;;-1.41
67966;BMP280;54749;47.850;9.002;2023-02-28T07:03:27;96392.47;;;-1.40
67966;BMP280;54749;47.850;9.002;2023-02-28T07:05:54;96402.38;;;-1.40
67966;BMP280;54749;47.850;9.002;2023-02-28T07:08:24;96376.78;;;-1.41
67966;BMP280;54749;47.850;9.002;2023-02-28T07:10:55;96394.94;;;-1.40
67966;BMP280;54749;47.850;9.002;2023-02-28T07:13:23;96389.81;;;-1.33
67966;BMP280;54749;47.850;9.002;2023-02-28T07:16:03;96388.97;;;-1.34
67966;BMP280;54749;47.850;9.002;2023-02-28T07:18:31;96386.38;;;-1.28
67966;BMP280;54749;47.850;9.002;2023-02-28T07:20:58;96402.03;;;-1.26
67966;BMP280;54749;47.850;9.002;2023-02-28T07:23:25;96398.75;;;-1.28
67966;BMP280;54749;47.850;9.002;2023-02-28T07:25:52;96412.69;;;-1.23
67966;BMP280;54749;47.850;9.002;2023-02-28T07:28:19;96403.47;;;-1.18
67966;BMP280;54749;47.850;9.002;2023-02-28T07:30:46;96411.88;;;-1.23
67966;BMP280;54749;47.850;9.002;2023-02-28T07:33:13;96409.38;;;-1.23
67966;BMP280;54749;47.850;9.002;2023-02-28T07:35:40;96416.13;;;-1.28
67966;BMP280;54749;47.850;9.002;2023-02-28T07:38:08;96401.25;;;-1.28
67966;BMP280;54749;47.850;9.002;2023-02-28T07:40:35;96420.78;;;-1.16
67966;BMP280;54749;47.850;9.002;2023-02-28T07:43:03;96401.66;;;-1.11
67966;BMP280;54749;47.850;9.002;2023-02-28T07:45:31;96402.50;;;-1.12
67966;BMP280;54749;47.850;9.002;2023-02-28T07:48:01;96414.25;;;-1.19
67966;BMP280;54749;47.850;9.002;2023-02-28T07:50:28;96410.22;;;-1.24
67966;BMP280;54749;47.850;9.002;2023-02-28T07:52:58;96417.47;;;-1.17
67966;BMP280;54749;47.850;9.002;2023-02-28T07:55:26;96414.03;;;-1.10
67966;BMP280;54749;47.850;9.002;2023-02-28T07:57:53;96408.09;;;-1.05
67966;BMP280;54749;47.850;9.002;2023-02-28T08:00:21;96415.44;;;-1.00
67966;BMP280;54749;47.850;9.002;2023-02-28T08:02:48;96406.31;;;-1.00
67966;BMP280;54749;47.850;9.002;2023-02-28T08:05:16;96409.56;;;-0.98
67966;BMP280;54749;47.850;9.002;2023-02-28T08:07:49;96409.44;;;-0.92
67966;BMP280;54749;47.850;9.002;2023-02-28T08:10:16;96416.03;;;-0.91
67966;BMP280;54749;47.850;9.002;2023-02-28T08:12:43;96419.41;;;-0.95
67966;BMP280;54749;47.850;9.002;2023-02-28T08:15:10;96416.03;;;-0.91
67966;BMP280;54749;47.850;9.002;2023-02-28T08:17:37;96436.00;;;-0.97
67966;BMP280;54749;47.850;9.002;2023-02-28T08:20:05;96423.59;;;-0.97
67966;BMP280;54749;47.850;9.002;2023-02-28T08:22:32;96426.81;;;-0.93
67966;BMP280;54749;47.850;9.002;2023-02-28T08:24:59;96429.19;;;-0.89
67966;BMP280;54749;47.850;9.002;2023-02-28T08:27:26;96425.84;;;-0.88
67966;BMP280;54749;47.850;9.002;2023-02-28T08:29:53;96430.13;;;-0.93
67966;BMP280;54749;47.850;9.002;2023-02-28T08:32:21;96421.03;;;-0.94
67966;BMP280;54749;47.850;9.002;2023-02-28T08:34:56;96431.00;;;-0.95
67966;BMP280;54749;47.850;9.002;2023-02-28T08:37:23;96430.13;;;-0.93
67966;BMP280;54749;47.850;9.002;2023-02-28T08:39:50;96426.66;;;-0.88
67966;BMP280;54749;47.850;9.002;2023-02-28T08:42:22;96433.81;;;-0.77
67966;BMP280;54749;47.850;9.002;2023-02-28T08:44:49;96435.38;;;-0.73
67966;BMP280;54749;47.850;9.002;2023-02-28T08:47:17;96445.72;;;-0.57
67966;BMP280;54749;47.850;9.002;2023-02-28T08:49:43;96444.81;;;-0.54
67966;BMP280;54749;47.850;9.002;2023-02-28T08:52:11;96444.16;;;-0.61
67966;BMP280;54749;47.850;9.002;2023-02-28T08:54:38;96432.50;;;-0.59
67966;BMP280;54749;47.850;9.002;2023-02-28T08:57:05;96443.28;;;-0.60
67966;BMP280;54749;47.850;9.002;2023-02-28T08:59:32;96448.44;;;-0.67
67966;BMP280;54749;47.850;9.002;2023-02-28T09:01:59;96455.06;;;-0.66
67966;BMP280;54749;47.850;9.002;2023-02-28T09:04:26;96449.28;;;-0.68
67966;BMP280;54749;47.850;9.002;2023-02-28T09:06:53;96449.28;;;-0.67
67966;BMP280;54749;47.850;9.002;2023-02-28T09:09:20;96448.25;;;-0.60
67966;BMP280;54749;47.850;9.002;2023-02-28T09:11:47;96456.41;;;-0.55
67966;BMP280;54749;47.850;9.002;2023-02-28T09:14:14;96454.47;;;-0.44
67966;BMP280;54749;47.850;9.002;2023-02-28T09:16:41;96448.59;;;-0.42
67966;BMP280;54749;47.850;9.002;2023-02-28T09:19:11;96465.03;;;-0.38
67966;BMP280;54749;47.850;9.002;2023-02-28T09:21:39;96464.06;;;-0.33
67966;BMP280;54749;47.850;9.002;2023-02-28T09:24:06;96465.63;;;-0.30
67966;BMP280;54749;47.850;9.002;2023-02-28T09:26:34;96465.69;;;-0.32
67966;BMP280;54749;47.850;9.002;2023-02-28T09:29:12;96448.25;;;-0.30
67966;BMP280;54749;47.850;9.002;2023-02-28T09:31:41;96464.06;;;-0.33
67966;BMP280;54749;47.850;9.002;2023-02-28T09:34:08;96449.00;;;-0.27
67966;BMP280;54749;47.850;9.002;2023-02-28T09:36:36;96440.03;;;-0.31
67966;BMP280;54749;47.850;9.002;2023-02-28T09:39:12;96444.81;;;-0.25
67966;BMP280;54749;47.850;9.002;2023-02-28T09:41:43;96449.75;;;-0.23
67966;BMP280;54749;47.850;9.002;2023-02-28T09:44:30;96468.06;;;-0.27
67966;BMP280;54749;47.850;9.002;2023-02-28T09:47:14;96454.13;;;-0.33
67966;BMP280;54749;47.850;9.002;2023-02-28T09:49:46;96454.81;;;-0.26
67966;BMP280;54749;47.850;9.002;2023-02-28T09:52:26;96457.78;;;-0.16
67966;BMP280;54749;47.850;9.002;2023-02-28T09:54:54;96453.53;;;-0.11
67966;BMP280;54749;47.850;9.002;2023-02-28T09:57:40;96458.34;;;-0.06
67966;BMP280;54749;47.850;9.002;2023-02-28T10:02:53;96461.91;;;0.14
67966;BMP280;54749;47.850;9.002;2023-02-28T10:05:27;96479.53;;;0.06
67966;BMP280;54749;47.850;9.002;2023-02-28T10:08:05;96466.94;;;0.12
67966;BMP280;54749;47.850;9.002;2023-02-28T10:10:40;96484.84;;;0.23
67966;BMP280;54749;47.850;9.002;2023-02-28T10:15:51;96469.72;;;0.30
67966;BMP280;54749;47.850;9.002;2023-02-28T10:18:26;96470.44;;;0.34
67966;BMP280;54749;47.850;9.002;2023-02-28T10:20:54;96479.84;;;0.23
67966;BMP280;54749;47.850;9.002;2023-02-28T10:23:34;96479.03;;;0.22
67966;BMP280;54749;47.850;9.002;2023-02-28T10:26:11;96466.75;;;0.46
67966;BMP280;54749;47.850;9.002;2023-02-28T10:28:40;96478.06;;;0.56
67966;BMP280;54749;47.850;9.002;2023-02-28T10:31:18;96485.09;;;0.42
67966;BMP280;54749;47.850;9.002;2023-02-28T10:33:47;96489.06;;;0.48
67966;BMP280;54749;47.850;9.002;2023-02-28T10:36:16;96485.03;;;0.44
67966;BMP280;54749;47.850;9.002;2023-02-28T10:38:45;96471.72;;;0.46
67966;BMP280;54749;47.850;9.002;2023-02-28T10:41:27;96484.25;;;0.43
67966;BMP280;54749;47.850;9.002;2023-02-28T10:44:22;96481.38;;;0.55
67966;BMP280;54749;47.850;9.002;2023-02-28T10:46:50;96490.88;;;0.69
67966;BMP280;54749;47.850;9.002;2023-02-28T10:49:24;96477.72;;;0.66
67966;BMP280;54749;47.850;9.002;2023-02-28T10:51:55;96490.69;;;0.75
67966;BMP280;54749;47.850;9.002;2023-02-28T10:54:35;96489.16;;;0.71
67966;BMP280;54749;47.850;9.002;2023-02-28T10:59:44;96491.00;;;0.92
67966;BMP280;54749;47.850;9.002;2023-02-28T11:05:31;96476.59;;;0.76
67966;BMP280;54749;47.850;9.002;2023-02-28T11:08:10;96488.22;;;0.75
67966;BMP280;54749;47.850;9.002;2023-02-28T11:10:48;96470.97;;;0.69
67966;BMP280;54749;47.850;9.002;2023-02-28T11:13:20;96485.34;;;0.87
67966;BMP280;54749;47.850;9.002;2023-02-28T11:15:52;96486.09;;;0.90
67966;BMP280;54749;47.850;9.002;2023-02-28T11:18:33;96475.72;;;1.04
67966;BMP280;54749;47.850;9.002;2023-02-28T11:21:03;96483.75;;;0.86
67966;BMP280;54749;47.850;9.002;2023-02-28T11:23:33;96481.91;;;0.91
67966;BMP280;54749;47.850;9.002;2023-02-28T11:26:04;96498.44;;;0.93
67966;BMP280;54749;47.850;9.002;2023-02-28T11:28:39;96485.97;;;0.93
67966;BMP280;54749;47.850;9.002;2023-02-28T11:33:54;96474.53;;;1.13
67966;BMP280;54749;47.850;9.002;2023-02-28T11:36:25;96472.69;;;1.20
67966;BMP280;54749;47.850;9.002;2023-02-28T11:38:54;96476.25;;;1.37
67966;BMP280;54749;47.850;9.002;2023-02-28T11:44:48;96464.91;;;1.28
67966;BMP280;54749;47.850;9.002;2023-02-28T11:47:44;96470.66;;;1.30
67966;BMP280;54749;47.850;9.002;2023-02-28T11:50:16;96480.81;;;1.24
67966;BMP280;54749;47.850;9.002;2023-02-28T11:52:54;96461.75;;;1.23
67966;BMP280;54749;47.850;9.002;2023-02-28T11:58:45;96460.75;;;1.29
67966;BMP280;54749;47.850;9.002;2023-02-28T12:03:59;96485.25;;;1.17
67966;BMP280;54749;47.850;9.002;2023-02-28T12:06:29;96473.34;;;1.24
67966;BMP280;54749;47.850;9.002;2023-02-28T12:11:51;96492.19;;;1.31
67966;BMP280;54749;47.850;9.002;2023-02-28T12:27:55;96464.50;;;1.40
67966;BMP280;54749;47.850;9.002;2023-02-28T12:30:27;96461.72;;;1.49
67966;BMP280;54749;47.850;9.002;2023-02-28T12:33:09;96478.56;;;1.42
67966;BMP280;54749;47.850;9.002;2023-02-28T12:36:03;96481.59;;;1.50
67966;BMP280;54749;47.850;9.002;2023-02-28T12:38:39;96475.09;;;1.46
67966;BMP280;54749;47.850;9.002;2023-02-28T12:41:15;96459.44;;;1.19
67966;BMP280;54749;47.850;9.002;2023-02-28T12:43:51;96470.31;;;1.40
67966;BMP280;54749;47.850;9.002;2023-02-28T12:46:36;96484.44;;;1.40
67966;BMP280;54749;47.850;9.002;2023-02-28T12:49:09;96479.34;;;1.43
67966;BMP280;54749;47.850;9.002;2023-02-28T12:51:38;96467.69;;;1.69
67966;BMP280;54749;47.850;9.002;2023-02-28T12:54:18;96460.22;;;1.91
67966;BMP280;54749;47.850;9.002;2023-02-28T12:59:38;96451.09;;;1.68
67966;BMP280;54749;47.850;9.002;2023-02-28T13:05:19;96439.34;;;1.71
67966;BMP280;54749;47.850;9.002;2023-02-28T13:08:08;96458.44;;;1.72
67966;BMP280;54749;47.850;9.002;2023-02-28T13:10:48;96455.00;;;1.74
67966;BMP280;54749;47.850;9.002;2023-02-28T13:13:26;96448.72;;;1.87
67966;BMP280;54749;47.850;9.002;2023-02-28T13:16:07;96448.06;;;1.82
67966;BMP280;54749;47.850;9.002;2023-02-28T13:18:44;96468.88;;;1.57
67966;BMP280;54749;47.850;9.002;2023-02-28T13:21:28;96463.09;;;1.57
67966;BMP280;54749;47.850;9.002;2023-02-28T13:24:00;96478.34;;;1.48
67966;BMP280;54749;47.850;9.002;2023-02-28T13:34:38;96472.47;;;1.51
67966;BMP280;54749;47.850;9.002;2023-02-28T13:42:24;96486.97;;;1.86
67966;BMP280;54749;47.850;9.002;2023-02-28T13:50:36;96465.53;;;2.05
67966;BMP280;54749;47.850;9.002;2023-02-28T13:56:07;96467.94;;;2.08
67966;BMP280;54749;47.850;9.002;2023-02-28T14:06:50;96459.44;;;2.34
67966;BMP280;54749;47.850;9.002;2023-02-28T14:11:57;96459.88;;;2.44
67966;BMP280;54749;47.850;9.002;2023-02-28T14:17:15;96467.16;;;2.06
67966;BMP280;54749;47.850;9.002;2023-02-28T14:19:45;96464.72;;;2.04
67966;BMP280;54749;47.850;9.002;2023-02-28T14:27:50;96490.22;;;1.88
67966;BMP280;54749;47.850;9.002;2023-02-28T14:36:23;96460.00;;;1.97
67966;BMP280;54749;47.850;9.002;2023-02-28T14:38:55;96463.31;;;1.97
67966;BMP280;54749;47.850;9.002;2023-02-28T14:41:28;96463.47;;;1.93
67966;BMP280;54749;47.850;9.002;2023-02-28T14:43:58;96462.63;;;1.94
67966;BMP280;54749;47.850;9.002;2023-02-28T14:46:30;96457.31;;;2.03
67966;BMP280;54749;47.850;9.002;2023-02-28T14:49:03;96461.91;;;2.13
67966;BMP280;54749;47.850;9.002;2023-02-28T14:51:30;96458.75;;;2.08
67966;BMP280;54749;47.850;9.002;2023-02-28T14:53:59;96455.84;;;1.97
67966;BMP280;54749;47.850;9.002;2023-02-28T14:56:35;96458.69;;;1.87
67966;BMP280;54749;47.850;9.002;2023-02-28T14:59:04;96461.81;;;1.93
67966;BMP280;54749;47.850;9.002;2023-02-28T15:01:31;96467.38;;;2.00
67966;BMP280;54749;47.850;9.002;2023-02-28T15:04:05;96461.25;;;2.08
67966;BMP280;54749;47.850;9.002;2023-02-28T15:06:33;96460.47;;;2.08
67966;BMP280;54749;47.850;9.002;2023-02-28T15:09:15;96474.09;;;1.98
67966;BMP280;54749;47.850;9.002;2023-02-28T15:11:46;96466.13;;;1.89
67966;BMP280;54749;47.850;9.002;2023-02-28T15:14:17;96475.44;;;1.84
67966;BMP280;54749;47.850;9.002;2023-02-28T15:16:50;96478.63;;;1.87
67966;BMP280;54749;47.850;9.002;2023-02-28T15:19:24;96472.13;;;1.83
67966;BMP280;54749;47.850;9.002;2023-02-28T15:21:57;96477.00;;;1.86
67966;BMP280;54749;47.850;9.002;2023-02-28T15:24:42;96471.69;;;1.95
67966;BMP280;54749;47.850;9.002;2023-02-28T15:27:38;96470.63;;;2.02
67966;BMP280;54749;47.850;9.002;2023-02-28T15:30:12;96462.34;;;2.01
67966;BMP280;54749;47.850;9.002;2023-02-28T15:32:41;96472.59;;;1.94
67966;BMP280;54749;47.850;9.002;2023-02-28T15:35:26;96471.13;;;1.89
67966;BMP280;54749;47.850;9.002;2023-02-28T15:40:32;96466.72;;;1.73
67966;BMP280;54749;47.850;9.002;2023-02-28T15:43:11;96471.22;;;1.62
67966;BMP280;54749;47.850;9.002;2023-02-28T15:45:46;96486.16;;;1.62
67966;BMP280;54749;47.850;9.002;2023-02-28T15:48:20;96468.63;;;1.65
67966;BMP280;54749;47.850;9.002;2023-02-28T15:51:01;96464.22;;;1.73
67966;BMP280;54749;47.850;9.002;2023-02-28T15:53:31;96464.97;;;1.74
67966;BMP280;54749;47.850;9.002;2023-02-28T15:56:04;96470.63;;;1.79
67966;BMP280;54749;47.850;9.002;2023-02-28T15:58:32;96472.25;;;1.80
67966;BMP280;54749;47.850;9.002;2023-02-28T16:01:16;96465.63;;;1.79
67966;BMP280;54749;47.850;9.002;2023-02-28T16:03:46;96471.53;;;1.77
67966;BMP280;54749;47.850;9.002;2023-02-28T16:06:42;96465.78;;;1.75
67966;BMP280;54749;47.850;9.002;2023-02-28T16:09:13;96465.81;;;1.74
67966;BMP280;54749;47.850;9.002;2023-02-28T16:11:48;96477.44;;;1.74
67966;BMP280;54749;47.850;9.002;2023-02-28T16:14:19;96472.59;;;1.70
67966;BMP280;54749;47.850;9.002;2023-02-28T16:16:56;96471.13;;;1.65
67966;BMP280;54749;47.850;9.002;2023-02-28T16:19:23;96471.22;;;1.62
67966;BMP280;54749;47.850;9.002;2023-02-28T16:21:50;96477.97;;;1.60
67966;BMP280;54749;47.850;9.002;2023-02-28T16:24:17;96469.59;;;1.61
67966;BMP280;54749;47.850;9.002;2023-02-28T16:26:47;96487.84;;;1.61
67966;BMP280;54749;47.850;9.002;2023-02-28T16:29:21;96479.56;;;1.61
67966;BMP280;54749;47.850;9.002;2023-02-28T16:31:50;96472.19;;;1.58
67966;BMP280;54749;47.850;9.002;2023-02-28T16:34:17;96476.41;;;1.56
67966;BMP280;54749;47.850;9.002;2023-02-28T16:36:47;96479.13;;;1.50
67966;BMP280;54749;47.850;9.002;2023-02-28T16:39:14;96477.53;;;1.48
67966;BMP280;54749;47.850;9.002;2023-02-28T16:41:43;96476.94;;;1.41
67966;BMP280;54749;47.850;9.002;2023-02-28T16:44:24;96490.41;;;1.35
67966;BMP280;54749;47.850;9.002;2023-02-28T16:46:53;96480.69;;;1.29